Black Star — 9HA2911 — position and weather

sailwx.info

Track history (hours):
 
Tides and Currents Weather Stations Pressure Air Temp Water Temp Dewpoint Dewpoint Depression Visibility Wind Speed Wind Dir Waves Ship Positions

Black Star

Last reported at 2016-Dec-11 00:10 UTC. Time now 2016-Dec-11 04:23 UTC.
Position N 37°02' W 009°42'.

Length 128 m; draft 7.6 m.

Type: Ship (hazmat cat B). MMSI: 256714000.

Date/timePositionNaut miles runAvg speedWind from/ knotsBaromVisibWave heightAir tempDewpointWater temp
2016-Dec-11 00:10N 37°02' W 009°42'712.2
2016-Dec-10 23:33N 37°09' W 009°44'1212.2
2016-Dec-10 22:33N 37°21' W 009°48'1212.1
2016-Dec-10 21:33N 37°33' W 009°51'1212.1
2016-Dec-10 20:32N 37°45' W 009°55'1512.4
2016-Dec-10 19:19N 37°59' W 009°59'1012.7
2016-Dec-10 18:33N 38°09' W 010°02'1212.4
2016-Dec-10 17:33N 38°21' W 010°06'1312.4
2016-Dec-10 16:32N 38°33' W 010°09'1212.1
2016-Dec-10 15:33N 38°45' W 010°12'1212.4
2016-Dec-10 14:33N 38°57' W 010°12'  
2016-Dec-08 06:26N 48°57' W 005°41'1111.8
2016-Dec-08 05:32N 49°03' W 005°27'8611.8
2016-Dec-07 22:16N 49°45' W 003°33'811.6
2016-Dec-07 21:33N 49°50' W 003°22'1312.9
2016-Dec-07 20:33N 49°56' W 003°04'1413.9
2016-Dec-07 19:32N 50°01' W 002°43'3214.9
2016-Dec-07 17:22N 50°10' W 001°55'2713.6
2016-Dec-07 15:24N 50°17' W 001°15'1212.4
2016-Dec-07 14:25N 50°21' W 000°57'1011.5
2016-Dec-07 13:33N 50°24' W 000°42'1211.6
2016-Dec-07 12:33N 50°27' W 000°24'1212.4
2016-Dec-07 11:33N 50°30' W 000°06'1313.2
2016-Dec-07 10:33N 50°34' E 000°14'4113.6
2016-Dec-07 07:33N 50°54' E 001°10'1212.6
2016-Dec-07 06:33N 51°03' E 001°24'1211.7
2016-Dec-07 05:33N 51°10' E 001°39'1211.9
2016-Dec-07 04:33N 51°19' E 001°52'1111.0
2016-Dec-07 03:33N 51°23' E 002°08'1313.1
2016-Dec-07 02:34N 51°23' E 002°29'1313.2
2016-Dec-07 01:33N 51°22' E 002°50'1413.5
2016-Dec-07 00:33N 51°24' E 003°11'1414.0
2016-Dec-06 23:33N 51°26' E 003°34'1212.1
2016-Dec-06 22:33N 51°21' E 003°51'1010.4
2016-Dec-06 21:33N 51°22' E 004°08'7 5.5
2016-Dec-06 20:16N 51°17' E 004°15'  
2016-Dec-03 04:34N 51°16' E 004°15'1 1.1
2016-Dec-03 03:33N 51°17' E 004°15'7 6.7
2016-Dec-03 02:32N 51°23' E 004°13'9 9.6
2016-Dec-03 01:33N 51°25' E 003°58'10 9.7
2016-Dec-03 00:33N 51°25' E 003°42'1212.0
2016-Dec-02 23:33N 51°24' E 003°23'1312.8
2016-Dec-02 22:33N 51°24' E 003°02'1111.5
2016-Dec-02 21:34N 51°21' E 002°45'10 9.6
2016-Dec-02 20:33N 51°22' E 002°29'10 9.9
2016-Dec-02 19:33N 51°19' E 002°14'1212.1
2016-Dec-02 18:33N 51°25' E 001°57'1212.0
2016-Dec-02 17:33N 51°35' E 002°07'1212.0
2016-Dec-02 16:32N 51°43' E 002°21'1010.1
2016-Dec-02 15:33N 51°48' E 002°35'8 8.4
2016-Dec-02 14:33N 51°41' E 002°28'9 8.6
2016-Dec-02 13:32N 51°34' E 002°19'8 8.4
2016-Dec-02 12:33N 51°28' E 002°10'8 7.7
2016-Dec-02 11:33N 51°24' E 001°60'9 8.6
2016-Dec-02 10:32N 51°32' E 002°05'1110.9
2016-Dec-02 09:32N 51°41' E 002°16'74 8.0
2016-Dec-02 00:20N 52°31' E 003°44'1012.5
2016-Dec-01 23:34N 52°31' E 003°60'1212.3
2016-Dec-01 22:33N 52°30' E 004°20'10 9.9
2016-Dec-01 21:33N 52°28' E 004°36'1 1.1
2016-Dec-01 20:33N 52°28' E 004°38'4 4.2
2016-Dec-01 19:33N 52°26' E 004°44'1 0.7
2016-Dec-01 18:20N 52°25' E 004°45'0 0.0
2016-Dec-01 17:32N 52°25' E 004°45'0 0.0
2016-Dec-01 16:32N 52°25' E 004°45'0 0.0
2016-Dec-01 14:32N 52°25' E 004°45'0 0.0
2016-Dec-01 12:32N 52°25' E 004°45'0 0.0
2016-Dec-01 11:32N 52°25' E 004°45'0 0.0
2016-Dec-01 10:32N 52°25' E 004°45'0 0.0
2016-Dec-01 08:32N 52°25' E 004°45'0 0.0
2016-Dec-01 07:29N 52°25' E 004°45'0 0.0
2016-Dec-01 06:26N 52°25' E 004°45'0 0.2
2016-Dec-01 05:33N 52°26' E 004°45'3 3.3
2016-Dec-01 04:31N 52°25' E 004°50'0 0.0
2016-Dec-01 03:31N 52°25' E 004°50'0 0.0
2016-Dec-01 02:31N 52°25' E 004°50'0 0.0
2016-Dec-01 01:31N 52°25' E 004°50'0 0.0
2016-Dec-01 00:31N 52°25' E 004°50'  
Track history (hours):
 
Tides and Currents Weather Stations Pressure Air Temp Water Temp Dewpoint Dewpoint Depression Visibility Wind Speed Wind Dir Waves Ship Positions

Black Star

Last reported at 2016-Dec-11 00:10 UTC. Time now 2016-Dec-11 04:23 UTC.
Position N 37°02' W 009°42'.

Length 128 m; draft 7.6 m.

Type: Ship (hazmat cat B). MMSI: 256714000.

Date/timePositionNaut miles runAvg speedWind from/ knotsBaromVisibWave heightAir tempDewpointWater temp
2016-Dec-11 00:10N 37°02' W 009°42'712.2
2016-Dec-10 23:33N 37°09' W 009°44'1212.2
2016-Dec-10 22:33N 37°21' W 009°48'1212.1
2016-Dec-10 21:33N 37°33' W 009°51'1212.1
2016-Dec-10 20:32N 37°45' W 009°55'1512.4
2016-Dec-10 19:19N 37°59' W 009°59'1012.7
2016-Dec-10 18:33N 38°09' W 010°02'1212.4
2016-Dec-10 17:33N 38°21' W 010°06'1312.4
2016-Dec-10 16:32N 38°33' W 010°09'1212.1
2016-Dec-10 15:33N 38°45' W 010°12'1212.4
2016-Dec-10 14:33N 38°57' W 010°12'  
2016-Dec-08 06:26N 48°57' W 005°41'1111.8
2016-Dec-08 05:32N 49°03' W 005°27'8611.8
2016-Dec-07 22:16N 49°45' W 003°33'811.6
2016-Dec-07 21:33N 49°50' W 003°22'1312.9
2016-Dec-07 20:33N 49°56' W 003°04'1413.9
2016-Dec-07 19:32N 50°01' W 002°43'3214.9
2016-Dec-07 17:22N 50°10' W 001°55'2713.6
2016-Dec-07 15:24N 50°17' W 001°15'1212.4
2016-Dec-07 14:25N 50°21' W 000°57'1011.5
2016-Dec-07 13:33N 50°24' W 000°42'1211.6
2016-Dec-07 12:33N 50°27' W 000°24'1212.4
2016-Dec-07 11:33N 50°30' W 000°06'1313.2
2016-Dec-07 10:33N 50°34' E 000°14'4113.6
2016-Dec-07 07:33N 50°54' E 001°10'1212.6
2016-Dec-07 06:33N 51°03' E 001°24'1211.7
2016-Dec-07 05:33N 51°10' E 001°39'1211.9
2016-Dec-07 04:33N 51°19' E 001°52'1111.0
2016-Dec-07 03:33N 51°23' E 002°08'1313.1
2016-Dec-07 02:34N 51°23' E 002°29'1313.2
2016-Dec-07 01:33N 51°22' E 002°50'1413.5
2016-Dec-07 00:33N 51°24' E 003°11'1414.0
2016-Dec-06 23:33N 51°26' E 003°34'1212.1
2016-Dec-06 22:33N 51°21' E 003°51'1010.4
2016-Dec-06 21:33N 51°22' E 004°08'7 5.5
2016-Dec-06 20:16N 51°17' E 004°15'  
2016-Dec-03 04:34N 51°16' E 004°15'1 1.1
2016-Dec-03 03:33N 51°17' E 004°15'7 6.7
2016-Dec-03 02:32N 51°23' E 004°13'9 9.6
2016-Dec-03 01:33N 51°25' E 003°58'10 9.7
2016-Dec-03 00:33N 51°25' E 003°42'1212.0
2016-Dec-02 23:33N 51°24' E 003°23'1312.8
2016-Dec-02 22:33N 51°24' E 003°02'1111.5
2016-Dec-02 21:34N 51°21' E 002°45'10 9.6
2016-Dec-02 20:33N 51°22' E 002°29'10 9.9
2016-Dec-02 19:33N 51°19' E 002°14'1212.1
2016-Dec-02 18:33N 51°25' E 001°57'1212.0
2016-Dec-02 17:33N 51°35' E 002°07'1212.0
2016-Dec-02 16:32N 51°43' E 002°21'1010.1
2016-Dec-02 15:33N 51°48' E 002°35'8 8.4
2016-Dec-02 14:33N 51°41' E 002°28'9 8.6
2016-Dec-02 13:32N 51°34' E 002°19'8 8.4
2016-Dec-02 12:33N 51°28' E 002°10'8 7.7
2016-Dec-02 11:33N 51°24' E 001°60'9 8.6
2016-Dec-02 10:32N 51°32' E 002°05'1110.9
2016-Dec-02 09:32N 51°41' E 002°16'74 8.0
2016-Dec-02 00:20N 52°31' E 003°44'1012.5
2016-Dec-01 23:34N 52°31' E 003°60'1212.3
2016-Dec-01 22:33N 52°30' E 004°20'10 9.9
2016-Dec-01 21:33N 52°28' E 004°36'1 1.1
2016-Dec-01 20:33N 52°28' E 004°38'4 4.2
2016-Dec-01 19:33N 52°26' E 004°44'1 0.7
2016-Dec-01 18:20N 52°25' E 004°45'0 0.0
2016-Dec-01 17:32N 52°25' E 004°45'0 0.0
2016-Dec-01 16:32N 52°25' E 004°45'0 0.0
2016-Dec-01 14:32N 52°25' E 004°45'0 0.0
2016-Dec-01 12:32N 52°25' E 004°45'0 0.0
2016-Dec-01 11:32N 52°25' E 004°45'0 0.0
2016-Dec-01 10:32N 52°25' E 004°45'0 0.0
2016-Dec-01 08:32N 52°25' E 004°45'0 0.0
2016-Dec-01 07:29N 52°25' E 004°45'0 0.0
2016-Dec-01 06:26N 52°25' E 004°45'0 0.2
2016-Dec-01 05:33N 52°26' E 004°45'3 3.3
2016-Dec-01 04:31N 52°25' E 004°50'0 0.0
2016-Dec-01 03:31N 52°25' E 004°50'0 0.0
2016-Dec-01 02:31N 52°25' E 004°50'0 0.0
2016-Dec-01 01:31N 52°25' E 004°50'0 0.0
2016-Dec-01 00:31N 52°25' E 004°50'  

Dump ship's entire track history